sensor_id;sensor_type;location;lat;lon;timestamp;temperature;humidity
55369;DHT22;41247;49.736;8.752;2023-12-14T00:02:42;6.20;99.90
55369;DHT22;41247;49.736;8.752;2023-12-14T00:06:23;6.10;99.90
55369;DHT22;41247;49.736;8.752;2023-12-14T00:10:04;6.10;99.90
55369;DHT22;41247;49.736;8.752;2023-12-14T00:13:45;6.10;99.90
55369;DHT22;41247;49.736;8.752;2023-12-14T00:17:25;6.00;99.90
55369;DHT22;41247;49.736;8.752;2023-12-14T00:21:06;6.00;99.90
55369;DHT22;41247;49.736;8.752;2023-12-14T00:24:47;6.00;99.90
55369;DHT22;41247;49.736;8.752;2023-12-14T00:28:27;6.00;99.90
55369;DHT22;41247;49.736;8.752;2023-12-14T00:32:08;5.90;99.90
55369;DHT22;41247;49.736;8.752;2023-12-14T00:35:48;5.90;99.90
55369;DHT22;41247;49.736;8.752;2023-12-14T00:39:29;5.90;99.90
55369;DHT22;41247;49.736;8.752;2023-12-14T00:43:10;5.90;99.90
55369;DHT22;41247;49.736;8.752;2023-12-14T00:46:50;5.90;99.90
55369;DHT22;41247;49.736;8.752;2023-12-14T00:50:31;6.00;99.90
55369;DHT22;41247;49.736;8.752;2023-12-14T00:54:11;6.00;99.90
55369;DHT22;41247;49.736;8.752;2023-12-14T00:57:52;6.00;99.90
55369;DHT22;41247;49.736;8.752;2023-12-14T01:01:33;6.00;99.90
55369;DHT22;41247;49.736;8.752;2023-12-14T01:05:13;6.00;99.90
55369;DHT22;41247;49.736;8.752;2023-12-14T01:08:54;6.00;99.90
55369;DHT22;41247;49.736;8.752;2023-12-14T01:12:34;6.00;99.90
55369;DHT22;41247;49.736;8.752;2023-12-14T01:16:15;6.00;99.90
55369;DHT22;41247;49.736;8.752;2023-12-14T01:19:56;6.00;99.90
55369;DHT22;41247;49.736;8.752;2023-12-14T01:23:38;6.00;99.90
55369;DHT22;41247;49.736;8.752;2023-12-14T01:27:18;6.00;99.90
55369;DHT22;41247;49.736;8.752;2023-12-14T01:30:59;6.00;99.90
55369;DHT22;41247;49.736;8.752;2023-12-14T01:34:39;6.00;99.90
55369;DHT22;41247;49.736;8.752;2023-12-14T01:38:20;6.00;99.90
55369;DHT22;41247;49.736;8.752;2023-12-14T01:42:01;6.00;99.90
55369;DHT22;41247;49.736;8.752;2023-12-14T01:45:41;5.90;99.90
55369;DHT22;41247;49.736;8.752;2023-12-14T01:49:22;5.90;99.90
55369;DHT22;41247;49.736;8.752;2023-12-14T01:53:02;5.90;99.90
55369;DHT22;41247;49.736;8.752;2023-12-14T01:56:43;5.90;99.90
55369;DHT22;41247;49.736;8.752;2023-12-14T02:04:34;5.90;99.90
55369;DHT22;41247;49.736;8.752;2023-12-14T02:08:14;5.90;99.90
55369;DHT22;41247;49.736;8.752;2023-12-14T02:11:55;5.90;99.90
55369;DHT22;41247;49.736;8.752;2023-12-14T02:15:37;6.00;99.90
55369;DHT22;41247;49.736;8.752;2023-12-14T02:19:18;6.00;99.90
55369;DHT22;41247;49.736;8.752;2023-12-14T02:22:59;5.90;99.90
55369;DHT22;41247;49.736;8.752;2023-12-14T02:26:39;5.90;99.90
55369;DHT22;41247;49.736;8.752;2023-12-14T02:30:20;5.90;99.90
55369;DHT22;41247;49.736;8.752;2023-12-14T02:34:00;5.90;99.90
55369;DHT22;41247;49.736;8.752;2023-12-14T02:37:41;5.80;99.90
55369;DHT22;41247;49.736;8.752;2023-12-14T02:41:22;5.90;99.90
55369;DHT22;41247;49.736;8.752;2023-12-14T02:45:03;5.90;99.90
55369;DHT22;41247;49.736;8.752;2023-12-14T02:48:44;5.90;99.90
55369;DHT22;41247;49.736;8.752;2023-12-14T02:52:25;5.80;99.90
55369;DHT22;41247;49.736;8.752;2023-12-14T02:56:06;5.80;99.90
55369;DHT22;41247;49.736;8.752;2023-12-14T02:59:47;5.70;99.90
55369;DHT22;41247;49.736;8.752;2023-12-14T03:03:27;5.60;99.90
55369;DHT22;41247;49.736;8.752;2023-12-14T03:07:09;5.50;99.90
55369;DHT22;41247;49.736;8.752;2023-12-14T03:10:49;5.40;99.90
55369;DHT22;41247;49.736;8.752;2023-12-14T03:14:32;5.30;99.90
55369;DHT22;41247;49.736;8.752;2023-12-14T03:18:13;5.30;99.90
55369;DHT22;41247;49.736;8.752;2023-12-14T03:21:54;5.20;99.90
55369;DHT22;41247;49.736;8.752;2023-12-14T03:25:37;5.20;99.90
55369;DHT22;41247;49.736;8.752;2023-12-14T03:29:18;5.20;99.90
55369;DHT22;41247;49.736;8.752;2023-12-14T03:32:59;5.20;99.90
55369;DHT22;41247;49.736;8.752;2023-12-14T03:36:39;5.20;99.90
55369;DHT22;41247;49.736;8.752;2023-12-14T03:40:20;5.20;99.90
55369;DHT22;41247;49.736;8.752;2023-12-14T03:44:00;5.20;99.90
55369;DHT22;41247;49.736;8.752;2023-12-14T03:47:41;5.20;99.90
55369;DHT22;41247;49.736;8.752;2023-12-14T03:51:22;5.20;99.90
55369;DHT22;41247;49.736;8.752;2023-12-14T03:55:02;5.20;99.90
55369;DHT22;41247;49.736;8.752;2023-12-14T03:58:43;5.30;99.90
55369;DHT22;41247;49.736;8.752;2023-12-14T04:02:24;5.30;99.90
55369;DHT22;41247;49.736;8.752;2023-12-14T04:06:04;5.30;99.90
55369;DHT22;41247;49.736;8.752;2023-12-14T04:09:45;5.30;99.90
55369;DHT22;41247;49.736;8.752;2023-12-14T04:13:26;5.30;99.90
55369;DHT22;41247;49.736;8.752;2023-12-14T04:17:06;5.40;99.90
55369;DHT22;41247;49.736;8.752;2023-12-14T04:20:47;5.40;99.90
55369;DHT22;41247;49.736;8.752;2023-12-14T04:24:28;5.40;99.90
55369;DHT22;41247;49.736;8.752;2023-12-14T04:28:08;5.40;99.90
55369;DHT22;41247;49.736;8.752;2023-12-14T04:31:49;5.50;99.90
55369;DHT22;41247;49.736;8.752;2023-12-14T04:35:29;5.50;99.90
55369;DHT22;41247;49.736;8.752;2023-12-14T04:39:10;5.50;99.90
55369;DHT22;41247;49.736;8.752;2023-12-14T04:42:51;5.50;99.90
55369;DHT22;41247;49.736;8.752;2023-12-14T04:46:31;5.50;99.90
55369;DHT22;41247;49.736;8.752;2023-12-14T04:50:12;5.50;99.90
55369;DHT22;41247;49.736;8.752;2023-12-14T04:53:53;5.50;99.90
55369;DHT22;41247;49.736;8.752;2023-12-14T04:57:35;5.50;99.90
55369;DHT22;41247;49.736;8.752;2023-12-14T05:01:15;5.50;99.90
55369;DHT22;41247;49.736;8.752;2023-12-14T05:04:56;5.50;99.90
55369;DHT22;41247;49.736;8.752;2023-12-14T05:08:36;5.50;99.90
55369;DHT22;41247;49.736;8.752;2023-12-14T05:12:40;5.50;99.90
55369;DHT22;41247;49.736;8.752;2023-12-14T05:16:25;5.50;99.90
55369;DHT22;41247;49.736;8.752;2023-12-14T05:20:17;5.50;99.90
55369;DHT22;41247;49.736;8.752;2023-12-14T05:29:29;5.50;99.90
55369;DHT22;41247;49.736;8.752;2023-12-14T05:33:09;5.60;99.90
55369;DHT22;41247;49.736;8.752;2023-12-14T05:37:02;5.50;99.90
55369;DHT22;41247;49.736;8.752;2023-12-14T05:45:58;5.50;99.90
55369;DHT22;41247;49.736;8.752;2023-12-14T05:50:01;5.60;99.90
55369;DHT22;41247;49.736;8.752;2023-12-14T05:54:07;5.60;99.90
55369;DHT22;41247;49.736;8.752;2023-12-14T05:57:55;5.60;99.90
55369;DHT22;41247;49.736;8.752;2023-12-14T06:01:36;5.60;99.90
55369;DHT22;41247;49.736;8.752;2023-12-14T06:05:16;5.60;99.90
55369;DHT22;41247;49.736;8.752;2023-12-14T06:08:57;5.60;99.90
55369;DHT22;41247;49.736;8.752;2023-12-14T06:12:53;5.60;99.90
55369;DHT22;41247;49.736;8.752;2023-12-14T06:16:39;5.60;99.90
55369;DHT22;41247;49.736;8.752;2023-12-14T06:21:02;5.60;99.90
55369;DHT22;41247;49.736;8.752;2023-12-14T06:24:43;5.60;99.90
55369;DHT22;41247;49.736;8.752;2023-12-14T06:28:30;5.60;99.90
55369;DHT22;41247;49.736;8.752;2023-12-14T06:36:42;5.60;99.90
55369;DHT22;41247;49.736;8.752;2023-12-14T06:40:33;5.60;99.90
55369;DHT22;41247;49.736;8.752;2023-12-14T06:49:00;5.60;99.90
55369;DHT22;41247;49.736;8.752;2023-12-14T06:52:52;5.60;99.90
55369;DHT22;41247;49.736;8.752;2023-12-14T07:05:55;5.60;99.90
55369;DHT22;41247;49.736;8.752;2023-12-14T07:09:51;5.60;99.90
55369;DHT22;41247;49.736;8.752;2023-12-14T07:18:12;5.70;99.90
55369;DHT22;41247;49.736;8.752;2023-12-14T07:22:13;5.70;99.90
55369;DHT22;41247;49.736;8.752;2023-12-14T07:26:36;5.70;99.90
55369;DHT22;41247;49.736;8.752;2023-12-14T07:31:07;5.70;99.90
55369;DHT22;41247;49.736;8.752;2023-12-14T07:35:03;5.70;99.90
55369;DHT22;41247;49.736;8.752;2023-12-14T07:38:44;5.80;99.90
55369;DHT22;41247;49.736;8.752;2023-12-14T07:47:15;5.80;99.90
55369;DHT22;41247;49.736;8.752;2023-12-14T07:50:56;5.90;99.90
55369;DHT22;41247;49.736;8.752;2023-12-14T07:54:36;5.90;99.90
55369;DHT22;41247;49.736;8.752;2023-12-14T07:58:37;5.90;99.90
55369;DHT22;41247;49.736;8.752;2023-12-14T08:02:49;5.90;99.90
55369;DHT22;41247;49.736;8.752;2023-12-14T08:06:30;6.00;99.90
55369;DHT22;41247;49.736;8.752;2023-12-14T08:10:10;6.00;99.90
55369;DHT22;41247;49.736;8.752;2023-12-14T08:13:51;6.00;99.90
55369;DHT22;41247;49.736;8.752;2023-12-14T08:17:32;6.00;99.90
55369;DHT22;41247;49.736;8.752;2023-12-14T08:21:12;6.00;99.90
55369;DHT22;41247;49.736;8.752;2023-12-14T08:24:53;6.10;99.90
55369;DHT22;41247;49.736;8.752;2023-12-14T08:28:34;6.10;99.90
55369;DHT22;41247;49.736;8.752;2023-12-14T08:32:14;6.10;99.90
55369;DHT22;41247;49.736;8.752;2023-12-14T08:35:56;6.10;99.90
55369;DHT22;41247;49.736;8.752;2023-12-14T08:39:36;6.10;99.90
55369;DHT22;41247;49.736;8.752;2023-12-14T08:43:17;6.10;99.90
55369;DHT22;41247;49.736;8.752;2023-12-14T08:46:57;6.10;99.90
55369;DHT22;41247;49.736;8.752;2023-12-14T08:50:38;6.10;99.90
55369;DHT22;41247;49.736;8.752;2023-12-14T08:54:19;6.20;99.90
55369;DHT22;41247;49.736;8.752;2023-12-14T08:57:59;6.10;99.90
55369;DHT22;41247;49.736;8.752;2023-12-14T09:01:40;6.20;99.90
55369;DHT22;41247;49.736;8.752;2023-12-14T09:05:20;6.20;99.90
55369;DHT22;41247;49.736;8.752;2023-12-14T09:09:01;6.10;99.90
55369;DHT22;41247;49.736;8.752;2023-12-14T09:12:42;6.10;99.90
55369;DHT22;41247;49.736;8.752;2023-12-14T09:16:22;6.20;99.90
55369;DHT22;41247;49.736;8.752;2023-12-14T09:20:03;6.10;99.90
55369;DHT22;41247;49.736;8.752;2023-12-14T09:23:44;6.20;99.90
55369;DHT22;41247;49.736;8.752;2023-12-14T09:27:25;6.20;99.90
55369;DHT22;41247;49.736;8.752;2023-12-14T09:31:05;6.30;99.90
55369;DHT22;41247;49.736;8.752;2023-12-14T09:34:46;6.40;99.90
55369;DHT22;41247;49.736;8.752;2023-12-14T09:38:27;6.40;99.90
55369;DHT22;41247;49.736;8.752;2023-12-14T09:42:07;6.50;99.90
55369;DHT22;41247;49.736;8.752;2023-12-14T09:45:49;6.50;99.90
55369;DHT22;41247;49.736;8.752;2023-12-14T09:49:30;6.50;99.90
55369;DHT22;41247;49.736;8.752;2023-12-14T09:53:11;6.50;99.90
55369;DHT22;41247;49.736;8.752;2023-12-14T09:56:51;6.50;99.90
55369;DHT22;41247;49.736;8.752;2023-12-14T10:00:33;6.50;99.90
55369;DHT22;41247;49.736;8.752;2023-12-14T10:04:19;6.50;99.90
55369;DHT22;41247;49.736;8.752;2023-12-14T10:08:00;6.50;99.90
55369;DHT22;41247;49.736;8.752;2023-12-14T10:11:41;6.50;99.90
55369;DHT22;41247;49.736;8.752;2023-12-14T10:15:22;6.50;99.90
55369;DHT22;41247;49.736;8.752;2023-12-14T10:19:03;6.60;99.90
55369;DHT22;41247;49.736;8.752;2023-12-14T10:22:44;6.60;99.90
55369;DHT22;41247;49.736;8.752;2023-12-14T10:26:25;6.60;99.90
55369;DHT22;41247;49.736;8.752;2023-12-14T10:30:07;6.60;99.90
55369;DHT22;41247;49.736;8.752;2023-12-14T10:33:50;6.70;99.90
55369;DHT22;41247;49.736;8.752;2023-12-14T10:37:37;6.70;99.90
55369;DHT22;41247;49.736;8.752;2023-12-14T10:41:41;6.70;99.90
55369;DHT22;41247;49.736;8.752;2023-12-14T10:46:04;6.70;99.90
55369;DHT22;41247;49.736;8.752;2023-12-14T10:50:17;6.70;99.90
55369;DHT22;41247;49.736;8.752;2023-12-14T10:54:39;6.70;99.90
55369;DHT22;41247;49.736;8.752;2023-12-14T10:58:24;6.70;99.90
55369;DHT22;41247;49.736;8.752;2023-12-14T11:02:14;6.70;99.90
55369;DHT22;41247;49.736;8.752;2023-12-14T11:11:07;6.70;99.90
55369;DHT22;41247;49.736;8.752;2023-12-14T11:20:31;6.70;99.90
55369;DHT22;41247;49.736;8.752;2023-12-14T11:25:08;6.70;99.90
55369;DHT22;41247;49.736;8.752;2023-12-14T11:29:50;6.80;99.90
55369;DHT22;41247;49.736;8.752;2023-12-14T11:34:55;6.90;99.90
55369;DHT22;41247;49.736;8.752;2023-12-14T11:38:36;7.10;99.90
55369;DHT22;41247;49.736;8.752;2023-12-14T11:42:18;7.20;99.90
55369;DHT22;41247;49.736;8.752;2023-12-14T11:46:00;7.20;99.90
55369;DHT22;41247;49.736;8.752;2023-12-14T11:49:40;7.20;99.90
55369;DHT22;41247;49.736;8.752;2023-12-14T11:53:21;7.30;99.90
55369;DHT22;41247;49.736;8.752;2023-12-14T11:57:02;7.30;99.90
55369;DHT22;41247;49.736;8.752;2023-12-14T12:00:42;7.30;99.90
55369;DHT22;41247;49.736;8.752;2023-12-14T12:04:58;7.40;99.90
55369;DHT22;41247;49.736;8.752;2023-12-14T12:09:51;7.50;99.90
55369;DHT22;41247;49.736;8.752;2023-12-14T12:14:38;7.60;99.90
55369;DHT22;41247;49.736;8.752;2023-12-14T12:19:07;7.70;99.90
55369;DHT22;41247;49.736;8.752;2023-12-14T12:24:02;7.60;99.90
55369;DHT22;41247;49.736;8.752;2023-12-14T12:28:47;7.50;99.90
55369;DHT22;41247;49.736;8.752;2023-12-14T12:32:29;7.50;99.90
55369;DHT22;41247;49.736;8.752;2023-12-14T12:36:50;7.50;99.90
55369;DHT22;41247;49.736;8.752;2023-12-14T12:41:16;7.60;99.90
55369;DHT22;41247;49.736;8.752;2023-12-14T12:46:04;7.60;99.90
55369;DHT22;41247;49.736;8.752;2023-12-14T12:50:14;7.60;99.90
55369;DHT22;41247;49.736;8.752;2023-12-14T12:53:55;7.60;99.90
55369;DHT22;41247;49.736;8.752;2023-12-14T12:57:37;7.60;99.90
55369;DHT22;41247;49.736;8.752;2023-12-14T13:01:18;7.50;99.90
55369;DHT22;41247;49.736;8.752;2023-12-14T13:04:58;7.40;99.90
55369;DHT22;41247;49.736;8.752;2023-12-14T13:08:39;7.40;99.90
55369;DHT22;41247;49.736;8.752;2023-12-14T13:12:19;7.20;99.90
55369;DHT22;41247;49.736;8.752;2023-12-14T13:16:00;7.10;99.90
55369;DHT22;41247;49.736;8.752;2023-12-14T13:19:41;7.00;99.90
55369;DHT22;41247;49.736;8.752;2023-12-14T13:23:21;7.00;99.90
55369;DHT22;41247;49.736;8.752;2023-12-14T13:27:02;7.00;99.90
55369;DHT22;41247;49.736;8.752;2023-12-14T13:30:43;7.00;99.90
55369;DHT22;41247;49.736;8.752;2023-12-14T13:34:23;7.00;99.90
55369;DHT22;41247;49.736;8.752;2023-12-14T13:38:07;7.00;99.90
55369;DHT22;41247;49.736;8.752;2023-12-14T13:41:48;6.90;99.90
55369;DHT22;41247;49.736;8.752;2023-12-14T13:45:29;6.80;99.90
55369;DHT22;41247;49.736;8.752;2023-12-14T13:49:10;6.80;99.90
55369;DHT22;41247;49.736;8.752;2023-12-14T13:52:50;6.80;99.90
55369;DHT22;41247;49.736;8.752;2023-12-14T13:56:31;6.80;99.90
55369;DHT22;41247;49.736;8.752;2023-12-14T14:00:12;6.80;99.90
55369;DHT22;41247;49.736;8.752;2023-12-14T14:03:53;6.80;99.90
55369;DHT22;41247;49.736;8.752;2023-12-14T14:07:33;6.80;99.90
55369;DHT22;41247;49.736;8.752;2023-12-14T14:11:14;6.80;99.90
55369;DHT22;41247;49.736;8.752;2023-12-14T14:14:55;6.80;99.90
55369;DHT22;41247;49.736;8.752;2023-12-14T14:18:35;6.90;99.90
55369;DHT22;41247;49.736;8.752;2023-12-14T14:22:17;6.80;99.90
55369;DHT22;41247;49.736;8.752;2023-12-14T14:25:58;6.80;99.90
55369;DHT22;41247;49.736;8.752;2023-12-14T14:29:39;6.80;99.90
55369;DHT22;41247;49.736;8.752;2023-12-14T14:33:19;6.70;99.90
55369;DHT22;41247;49.736;8.752;2023-12-14T14:37:00;6.70;99.90
55369;DHT22;41247;49.736;8.752;2023-12-14T14:40:42;6.70;99.90
55369;DHT22;41247;49.736;8.752;2023-12-14T14:44:22;6.60;99.90
55369;DHT22;41247;49.736;8.752;2023-12-14T14:48:04;6.60;99.90
55369;DHT22;41247;49.736;8.752;2023-12-14T14:51:45;6.50;99.90
55369;DHT22;41247;49.736;8.752;2023-12-14T14:55:25;6.50;99.90
55369;DHT22;41247;49.736;8.752;2023-12-14T14:59:06;6.60;99.90
55369;DHT22;41247;49.736;8.752;2023-12-14T15:02:48;6.50;99.90
55369;DHT22;41247;49.736;8.752;2023-12-14T15:06:29;6.50;99.90
55369;DHT22;41247;49.736;8.752;2023-12-14T15:10:09;6.40;99.90
55369;DHT22;41247;49.736;8.752;2023-12-14T15:13:50;6.40;99.90
55369;DHT22;41247;49.736;8.752;2023-12-14T15:17:30;6.30;99.90
55369;DHT22;41247;49.736;8.752;2023-12-14T15:21:11;6.20;99.90
55369;DHT22;41247;49.736;8.752;2023-12-14T15:24:52;6.20;99.90
55369;DHT22;41247;49.736;8.752;2023-12-14T15:28:32;6.20;99.90
55369;DHT22;41247;49.736;8.752;2023-12-14T15:32:13;6.20;99.90
55369;DHT22;41247;49.736;8.752;2023-12-14T15:35:54;6.20;99.90
55369;DHT22;41247;49.736;8.752;2023-12-14T15:39:34;6.20;99.90
55369;DHT22;41247;49.736;8.752;2023-12-14T15:43:15;6.20;99.90
55369;DHT22;41247;49.736;8.752;2023-12-14T15:46:55;6.20;99.90
55369;DHT22;41247;49.736;8.752;2023-12-14T15:50:36;6.10;99.90
55369;DHT22;41247;49.736;8.752;2023-12-14T15:54:17;6.10;99.90
55369;DHT22;41247;49.736;8.752;2023-12-14T15:57:57;6.10;99.90
55369;DHT22;41247;49.736;8.752;2023-12-14T16:01:38;6.10;99.90
55369;DHT22;41247;49.736;8.752;2023-12-14T16:05:18;6.00;99.90
55369;DHT22;41247;49.736;8.752;2023-12-14T16:08:59;6.00;99.90
55369;DHT22;41247;49.736;8.752;2023-12-14T16:12:40;5.90;99.90
55369;DHT22;41247;49.736;8.752;2023-12-14T16:16:23;5.90;99.90
55369;DHT22;41247;49.736;8.752;2023-12-14T16:20:04;5.90;99.90
55369;DHT22;41247;49.736;8.752;2023-12-14T16:23:45;5.80;99.90
55369;DHT22;41247;49.736;8.752;2023-12-14T16:27:26;5.90;99.90
55369;DHT22;41247;49.736;8.752;2023-12-14T16:31:07;5.80;99.90
55369;DHT22;41247;49.736;8.752;2023-12-14T16:34:47;5.70;99.90
55369;DHT22;41247;49.736;8.752;2023-12-14T16:38:28;5.70;99.90
55369;DHT22;41247;49.736;8.752;2023-12-14T16:42:10;5.60;99.90
55369;DHT22;41247;49.736;8.752;2023-12-14T16:45:51;5.50;99.90
55369;DHT22;41247;49.736;8.752;2023-12-14T16:49:32;5.50;99.90
55369;DHT22;41247;49.736;8.752;2023-12-14T16:53:20;5.40;99.90
55369;DHT22;41247;49.736;8.752;2023-12-14T16:57:23;5.30;99.90
55369;DHT22;41247;49.736;8.752;2023-12-14T17:01:05;5.20;99.90
55369;DHT22;41247;49.736;8.752;2023-12-14T17:04:45;5.20;99.90
55369;DHT22;41247;49.736;8.752;2023-12-14T17:08:26;5.20;99.90
55369;DHT22;41247;49.736;8.752;2023-12-14T17:12:07;5.10;99.90
55369;DHT22;41247;49.736;8.752;2023-12-14T17:15:47;5.10;99.90
55369;DHT22;41247;49.736;8.752;2023-12-14T17:19:28;5.10;99.90
55369;DHT22;41247;49.736;8.752;2023-12-14T17:23:08;5.10;99.90
55369;DHT22;41247;49.736;8.752;2023-12-14T17:26:49;5.10;99.90
55369;DHT22;41247;49.736;8.752;2023-12-14T17:30:30;5.10;99.90
55369;DHT22;41247;49.736;8.752;2023-12-14T17:34:10;5.20;99.90
55369;DHT22;41247;49.736;8.752;2023-12-14T17:37:51;5.10;99.90
55369;DHT22;41247;49.736;8.752;2023-12-14T17:41:32;5.10;99.90
55369;DHT22;41247;49.736;8.752;2023-12-14T17:45:12;5.20;99.90
55369;DHT22;41247;49.736;8.752;2023-12-14T17:48:53;5.10;99.90
55369;DHT22;41247;49.736;8.752;2023-12-14T17:52:34;5.10;99.90
55369;DHT22;41247;49.736;8.752;2023-12-14T17:56:15;5.10;99.90
55369;DHT22;41247;49.736;8.752;2023-12-14T17:59:56;5.00;99.90
55369;DHT22;41247;49.736;8.752;2023-12-14T18:03:37;5.00;99.90
55369;DHT22;41247;49.736;8.752;2023-12-14T18:07:17;5.00;99.90
55369;DHT22;41247;49.736;8.752;2023-12-14T18:10:58;4.90;99.90
55369;DHT22;41247;49.736;8.752;2023-12-14T18:14:38;4.80;99.90
55369;DHT22;41247;49.736;8.752;2023-12-14T18:18:19;4.80;99.90
55369;DHT22;41247;49.736;8.752;2023-12-14T18:22:00;4.70;99.90
55369;DHT22;41247;49.736;8.752;2023-12-14T18:25:41;4.60;99.90
55369;DHT22;41247;49.736;8.752;2023-12-14T18:29:22;4.60;99.90
55369;DHT22;41247;49.736;8.752;2023-12-14T18:33:03;4.60;99.90
55369;DHT22;41247;49.736;8.752;2023-12-14T18:36:43;4.60;99.90
55369;DHT22;41247;49.736;8.752;2023-12-14T18:40:24;4.60;99.90
55369;DHT22;41247;49.736;8.752;2023-12-14T18:44:04;4.60;99.90
55369;DHT22;41247;49.736;8.752;2023-12-14T18:47:45;4.50;99.90
55369;DHT22;41247;49.736;8.752;2023-12-14T18:51:26;4.50;99.90
55369;DHT22;41247;49.736;8.752;2023-12-14T18:55:07;4.50;99.90
55369;DHT22;41247;49.736;8.752;2023-12-14T18:58:48;4.50;99.90
55369;DHT22;41247;49.736;8.752;2023-12-14T19:02:28;4.50;99.90
55369;DHT22;41247;49.736;8.752;2023-12-14T19:06:09;4.50;99.90
55369;DHT22;41247;49.736;8.752;2023-12-14T19:09:49;4.50;99.90
55369;DHT22;41247;49.736;8.752;2023-12-14T19:13:30;4.50;99.90
55369;DHT22;41247;49.736;8.752;2023-12-14T19:17:11;4.50;99.90
55369;DHT22;41247;49.736;8.752;2023-12-14T19:20:51;4.40;99.90
55369;DHT22;41247;49.736;8.752;2023-12-14T19:24:32;4.40;99.90
55369;DHT22;41247;49.736;8.752;2023-12-14T19:28:12;4.40;99.90
55369;DHT22;41247;49.736;8.752;2023-12-14T19:31:53;4.40;99.90
55369;DHT22;41247;49.736;8.752;2023-12-14T19:35:33;4.40;99.90
55369;DHT22;41247;49.736;8.752;2023-12-14T19:39:14;4.30;99.90
55369;DHT22;41247;49.736;8.752;2023-12-14T19:42:56;4.30;99.90
55369;DHT22;41247;49.736;8.752;2023-12-14T19:46:36;4.30;99.90
55369;DHT22;41247;49.736;8.752;2023-12-14T19:50:17;4.30;99.90
55369;DHT22;41247;49.736;8.752;2023-12-14T19:53:57;4.30;99.90
55369;DHT22;41247;49.736;8.752;2023-12-14T19:57:38;4.30;99.90
55369;DHT22;41247;49.736;8.752;2023-12-14T20:01:19;4.20;99.90
55369;DHT22;41247;49.736;8.752;2023-12-14T20:05:01;4.20;99.90
55369;DHT22;41247;49.736;8.752;2023-12-14T20:08:42;4.20;99.90
55369;DHT22;41247;49.736;8.752;2023-12-14T20:12:22;4.20;99.90
55369;DHT22;41247;49.736;8.752;2023-12-14T20:16:06;4.20;99.90
55369;DHT22;41247;49.736;8.752;2023-12-14T20:19:47;4.20;99.90
55369;DHT22;41247;49.736;8.752;2023-12-14T20:23:27;4.30;99.90
55369;DHT22;41247;49.736;8.752;2023-12-14T20:27:08;4.30;99.90
55369;DHT22;41247;49.736;8.752;2023-12-14T20:30:49;4.30;99.90
55369;DHT22;41247;49.736;8.752;2023-12-14T20:34:29;4.30;99.90
55369;DHT22;41247;49.736;8.752;2023-12-14T20:38:10;4.20;99.90
55369;DHT22;41247;49.736;8.752;2023-12-14T20:41:50;4.30;99.90
55369;DHT22;41247;49.736;8.752;2023-12-14T20:45:31;4.30;99.90
55369;DHT22;41247;49.736;8.752;2023-12-14T20:49:12;4.30;99.90
55369;DHT22;41247;49.736;8.752;2023-12-14T20:52:52;4.30;99.90
55369;DHT22;41247;49.736;8.752;2023-12-14T20:56:33;4.30;99.90
55369;DHT22;41247;49.736;8.752;2023-12-14T21:00:14;4.40;99.90
55369;DHT22;41247;49.736;8.752;2023-12-14T21:03:54;4.40;99.90
55369;DHT22;41247;49.736;8.752;2023-12-14T21:07:35;4.40;99.90
55369;DHT22;41247;49.736;8.752;2023-12-14T21:11:15;4.30;99.90
55369;DHT22;41247;49.736;8.752;2023-12-14T21:14:56;4.40;99.90
55369;DHT22;41247;49.736;8.752;2023-12-14T21:18:37;4.30;99.90
55369;DHT22;41247;49.736;8.752;2023-12-14T21:22:17;4.30;99.90
55369;DHT22;41247;49.736;8.752;2023-12-14T21:25:58;4.30;99.90
55369;DHT22;41247;49.736;8.752;2023-12-14T21:29:40;4.30;99.90
55369;DHT22;41247;49.736;8.752;2023-12-14T21:33:21;4.30;99.90
55369;DHT22;41247;49.736;8.752;2023-12-14T21:37:01;4.30;99.90
55369;DHT22;41247;49.736;8.752;2023-12-14T21:40:42;4.20;99.90
55369;DHT22;41247;49.736;8.752;2023-12-14T21:44:23;4.20;99.90
55369;DHT22;41247;49.736;8.752;2023-12-14T21:48:03;4.20;99.90
55369;DHT22;41247;49.736;8.752;2023-12-14T21:51:44;4.10;99.90
55369;DHT22;41247;49.736;8.752;2023-12-14T21:55:25;4.10;99.90
55369;DHT22;41247;49.736;8.752;2023-12-14T21:59:05;4.10;99.90
55369;DHT22;41247;49.736;8.752;2023-12-14T22:02:46;4.10;99.90
55369;DHT22;41247;49.736;8.752;2023-12-14T22:06:27;4.10;99.90
55369;DHT22;41247;49.736;8.752;2023-12-14T22:10:08;4.10;99.90
55369;DHT22;41247;49.736;8.752;2023-12-14T22:13:49;4.10;99.90
55369;DHT22;41247;49.736;8.752;2023-12-14T22:17:30;4.10;99.90
55369;DHT22;41247;49.736;8.752;2023-12-14T22:21:11;4.10;99.90
55369;DHT22;41247;49.736;8.752;2023-12-14T22:24:52;4.10;99.90
55369;DHT22;41247;49.736;8.752;2023-12-14T22:28:32;4.00;99.90
55369;DHT22;41247;49.736;8.752;2023-12-14T22:32:13;4.00;99.90
55369;DHT22;41247;49.736;8.752;2023-12-14T22:35:54;4.00;99.90
55369;DHT22;41247;49.736;8.752;2023-12-14T22:39:34;4.00;99.90
55369;DHT22;41247;49.736;8.752;2023-12-14T22:43:15;4.10;99.90
55369;DHT22;41247;49.736;8.752;2023-12-14T22:46:55;4.10;99.90
55369;DHT22;41247;49.736;8.752;2023-12-14T22:50:36;4.10;99.90
55369;DHT22;41247;49.736;8.752;2023-12-14T22:54:17;4.00;99.90
55369;DHT22;41247;49.736;8.752;2023-12-14T22:57:57;4.00;99.90
55369;DHT22;41247;49.736;8.752;2023-12-14T23:01:38;4.00;99.90
55369;DHT22;41247;49.736;8.752;2023-12-14T23:05:19;4.00;99.90
55369;DHT22;41247;49.736;8.752;2023-12-14T23:09:01;3.90;99.90
55369;DHT22;41247;49.736;8.752;2023-12-14T23:12:42;3.90;99.90
55369;DHT22;41247;49.736;8.752;2023-12-14T23:16:23;3.90;99.90
55369;DHT22;41247;49.736;8.752;2023-12-14T23:20:04;3.90;99.90
55369;DHT22;41247;49.736;8.752;2023-12-14T23:23:45;3.90;99.90
55369;DHT22;41247;49.736;8.752;2023-12-14T23:27:25;3.90;99.90
55369;DHT22;41247;49.736;8.752;2023-12-14T23:31:07;3.90;99.90
55369;DHT22;41247;49.736;8.752;2023-12-14T23:34:48;3.90;99.90
55369;DHT22;41247;49.736;8.752;2023-12-14T23:38:28;3.90;99.90
55369;DHT22;41247;49.736;8.752;2023-12-14T23:42:09;3.90;99.90
55369;DHT22;41247;49.736;8.752;2023-12-14T23:45:49;3.80;99.90
55369;DHT22;41247;49.736;8.752;2023-12-14T23:49:30;3.80;99.90
55369;DHT22;41247;49.736;8.752;2023-12-14T23:53:11;3.80;99.90
55369;DHT22;41247;49.736;8.752;2023-12-14T23:56:51;3.80;99.90
